createdAt,value
2022-09-10T00:00:10.947Z,18.78
2022-09-10T00:02:41.229Z,18.62
2022-09-10T00:05:12.876Z,18.54
2022-09-10T00:07:42.914Z,18.46
2022-09-10T00:10:11.666Z,18.43
2022-09-10T00:12:40.674Z,18.38
2022-09-10T00:15:11.316Z,18.44
2022-09-10T00:17:41.709Z,18.43
2022-09-10T00:20:11.692Z,18.33
2022-09-10T00:22:40.436Z,18.35
2022-09-10T00:25:09.784Z,18.28
2022-09-10T00:27:40.152Z,18.29
2022-09-10T00:30:10.132Z,18.32
2022-09-10T00:32:40.490Z,18.39
2022-09-10T00:35:09.931Z,18.49
2022-09-10T00:37:38.914Z,18.54
2022-09-10T00:40:09.431Z,18.58
2022-09-10T00:42:38.589Z,18.64
2022-09-10T00:45:08.588Z,18.73
2022-09-10T00:47:40.792Z,18.84
2022-09-10T00:50:20.304Z,18.92
2022-09-10T00:52:50.987Z,18.88
2022-09-10T00:55:21.013Z,18.92
2022-09-10T00:57:54.942Z,18.91
2022-09-10T01:00:24.516Z,18.90
2022-09-10T01:02:53.814Z,18.93
2022-09-10T01:05:26.103Z,18.94
2022-09-10T01:07:55.012Z,18.91
2022-09-10T01:10:29.067Z,18.97
2022-09-10T01:13:16.284Z,18.94
2022-09-10T01:15:53.012Z,18.94
2022-09-10T01:18:34.792Z,19.03
2022-09-10T01:21:17.144Z,19.05
2022-09-10T01:24:21.133Z,19.07
2022-09-10T01:27:08.476Z,19.05
2022-09-10T01:29:43.171Z,19.09
2022-09-10T01:32:15.792Z,18.98
2022-09-10T01:34:56.538Z,18.90
2022-09-10T01:37:28.959Z,18.92
2022-09-10T01:40:00.319Z,18.95
2022-09-10T01:42:33.553Z,18.87
2022-09-10T01:45:04.285Z,18.84
2022-09-10T01:47:52.517Z,18.78
2022-09-10T01:50:30.357Z,18.76
2022-09-10T01:53:14.682Z,18.77
2022-09-10T01:55:51.463Z,18.66
2022-09-10T01:58:28.577Z,18.71
2022-09-10T02:01:17.825Z,18.63
2022-09-10T02:03:49.211Z,18.65
2022-09-10T02:06:20.461Z,18.64
2022-09-10T02:08:53.938Z,18.69
2022-09-10T02:11:22.684Z,18.79
2022-09-10T02:13:53.493Z,18.83
2022-09-10T02:16:54.894Z,18.84
2022-09-10T02:19:23.863Z,18.88
2022-09-10T02:21:53.250Z,18.84
2022-09-10T02:24:22.100Z,18.81
2022-09-10T02:26:51.187Z,18.77
2022-09-10T02:29:20.649Z,18.72
2022-09-10T02:31:51.441Z,18.67
2022-09-10T02:34:20.818Z,18.68
2022-09-10T02:36:51.044Z,18.71
2022-09-10T02:39:20.223Z,18.69
2022-09-10T02:41:48.962Z,18.74
2022-09-10T02:44:17.938Z,18.78
2022-09-10T02:46:46.732Z,18.78
2022-09-10T02:49:18.203Z,18.80
2022-09-10T02:51:47.888Z,18.80
2022-09-10T02:54:16.867Z,18.76
2022-09-10T02:56:45.670Z,18.74
2022-09-10T02:59:14.384Z,18.71
2022-09-10T03:01:43.740Z,18.69
2022-09-10T03:04:13.045Z,18.72
2022-09-10T03:06:43.832Z,18.70
2022-09-10T03:09:12.621Z,18.74
2022-09-10T03:11:42.006Z,18.78
2022-09-10T03:14:12.317Z,18.84
2022-09-10T03:16:41.467Z,18.93
2022-09-10T03:19:10.427Z,18.96
2022-09-10T03:21:41.597Z,18.92
2022-09-10T03:24:15.441Z,18.97
2022-09-10T03:26:47.277Z,19.04
2022-09-10T03:29:17.900Z,19.08
2022-09-10T03:31:46.788Z,19.09
2022-09-10T03:34:17.424Z,19.14
2022-09-10T03:36:47.917Z,19.15
2022-09-10T03:39:19.053Z,19.14
2022-09-10T03:41:48.165Z,19.14
2022-09-10T03:44:17.838Z,19.11
2022-09-10T03:46:48.824Z,19.12
2022-09-10T03:49:19.997Z,19.07
2022-09-10T03:51:49.069Z,18.94
2022-09-10T03:54:21.464Z,19.04
2022-09-10T03:56:50.796Z,19.05
2022-09-10T03:59:19.613Z,19.03
2022-09-10T04:01:48.982Z,18.99
2022-09-10T04:04:18.123Z,18.99
2022-09-10T04:06:46.962Z,19.03
2022-09-10T04:09:17.095Z,18.97
2022-09-10T04:11:47.886Z,19.03
2022-09-10T04:14:16.969Z,19.07
2022-09-10T04:16:45.895Z,19.11
2022-09-10T04:19:16.811Z,19.00
2022-09-10T04:21:45.838Z,19.07
2022-09-10T04:24:14.858Z,19.07
2022-09-10T04:26:44.391Z,19.05
2022-09-10T04:29:16.377Z,19.12
2022-09-10T04:31:46.770Z,19.09
2022-09-10T04:34:18.625Z,19.11
2022-09-10T04:36:47.571Z,19.13
2022-09-10T04:39:16.491Z,19.28
2022-09-10T04:41:45.325Z,19.28
2022-09-10T04:44:15.708Z,19.34
2022-09-10T04:46:45.004Z,19.36
2022-09-10T04:49:14.720Z,19.33
2022-09-10T04:51:43.747Z,19.39
2022-09-10T04:54:14.664Z,19.39
2022-09-10T04:56:45.072Z,19.43
2022-09-10T04:59:15.897Z,19.53
2022-09-10T05:01:47.784Z,19.60
2022-09-10T05:04:16.933Z,19.61
2022-09-10T05:06:47.676Z,19.64
2022-09-10T05:09:16.678Z,19.56
2022-09-10T05:11:47.187Z,19.63
2022-09-10T05:14:17.973Z,19.64
2022-09-10T05:16:46.801Z,19.67
2022-09-10T05:19:18.077Z,19.74
2022-09-10T05:22:07.053Z,19.85
2022-09-10T05:24:36.278Z,19.85
2022-09-10T05:27:07.079Z,19.90
2022-09-10T05:29:37.553Z,19.91
2022-09-10T05:32:06.836Z,20.06
2022-09-10T05:34:36.325Z,20.22
2022-09-10T05:37:05.995Z,20.25
2022-09-10T05:39:35.504Z,20.33
2022-09-10T05:42:04.417Z,20.38
2022-09-10T05:44:33.256Z,20.38
2022-09-10T05:47:03.805Z,20.45
2022-09-10T05:49:32.588Z,20.71
2022-09-10T05:52:03.205Z,21.11
2022-09-10T05:54:32.047Z,21.51
2022-09-10T05:57:00.929Z,21.83
2022-09-10T05:59:31.281Z,21.95
2022-09-10T06:02:00.203Z,22.12
2022-09-10T06:04:31.887Z,22.31
2022-09-10T06:07:02.099Z,22.39
2022-09-10T06:09:31.849Z,22.70
2022-09-10T06:12:08.609Z,23.17
2022-09-10T06:14:38.533Z,23.45
2022-09-10T06:17:07.661Z,23.49
2022-09-10T06:19:37.933Z,23.10
2022-09-10T06:22:07.173Z,23.10
2022-09-10T06:24:41.047Z,22.87
2022-09-10T06:27:10.084Z,22.77
2022-09-10T06:29:41.506Z,22.74
2022-09-10T06:32:12.197Z,22.66
2022-09-10T06:34:42.913Z,22.59
2022-09-10T06:37:13.567Z,22.58
2022-09-10T06:39:42.855Z,22.55
2022-09-10T06:42:12.529Z,22.37
2022-09-10T06:45:04.106Z,22.34
2022-09-10T06:51:10.790Z,22.18
2022-09-10T06:53:41.267Z,22.31
2022-09-10T06:56:13.413Z,22.54
2022-09-10T06:58:42.542Z,22.79
2022-09-10T07:01:15.102Z,23.16
2022-09-10T07:03:48.462Z,23.48
2022-09-10T07:06:19.798Z,23.76
2022-09-10T07:08:56.543Z,23.78
2022-09-10T07:11:26.855Z,23.88
2022-09-10T07:13:57.701Z,23.67
2022-09-10T07:16:31.465Z,23.78
2022-09-10T07:19:02.415Z,23.79
2022-09-10T07:21:41.126Z,23.74
2022-09-10T07:24:14.655Z,23.72
2022-09-10T07:27:12.694Z,23.56
2022-09-10T07:29:44.460Z,23.45
2022-09-10T07:32:17.171Z,23.55
2022-09-10T07:34:46.808Z,23.62
2022-09-10T07:37:17.847Z,23.70
2022-09-10T07:39:48.401Z,23.60
2022-09-10T07:42:18.648Z,23.75
2022-09-10T07:44:48.672Z,24.29
2022-09-10T07:47:17.610Z,24.80
2022-09-10T07:49:46.864Z,25.14
2022-09-10T07:52:18.812Z,25.65
2022-09-10T07:54:53.438Z,26.02
2022-09-10T07:57:23.199Z,26.41
2022-09-10T07:59:54.041Z,26.69
2022-09-10T08:02:26.011Z,26.82
2022-09-10T08:05:01.317Z,27.13
2022-09-10T08:07:33.301Z,27.05
2022-09-10T08:10:02.559Z,27.51
2022-09-10T08:12:32.355Z,27.63
2022-09-10T08:15:01.536Z,27.88
2022-09-10T08:17:32.700Z,28.16
2022-09-10T08:20:01.857Z,28.50
2022-09-10T08:22:34.059Z,28.05
2022-09-10T08:25:03.399Z,27.55
2022-09-10T08:27:34.620Z,27.33
2022-09-10T08:30:07.282Z,27.26
2022-09-10T08:32:36.646Z,27.40
2022-09-10T08:35:06.935Z,27.35
2022-09-10T08:37:38.249Z,27.86
2022-09-10T08:40:12.058Z,28.12
2022-09-10T08:42:46.435Z,27.96
2022-09-10T08:45:21.226Z,27.50
2022-09-10T08:47:59.266Z,26.64
2022-09-10T08:50:39.203Z,27.19
2022-09-10T08:53:26.083Z,27.51
2022-09-10T08:56:00.399Z,27.93
2022-09-10T08:58:34.928Z,28.17
2022-09-10T09:01:06.199Z,28.62
2022-09-10T09:03:42.363Z,29.11
2022-09-10T09:06:25.182Z,29.12
2022-09-10T09:08:56.164Z,29.07
2022-09-10T09:11:42.841Z,29.05
2022-09-10T09:14:28.138Z,29.22
2022-09-10T09:17:13.299Z,29.13
2022-09-10T09:19:47.172Z,29.32
2022-09-10T09:22:20.038Z,28.99
2022-09-10T09:24:58.861Z,29.13
2022-09-10T09:27:31.426Z,28.37
2022-09-10T09:30:03.861Z,28.17
2022-09-10T09:32:42.353Z,27.60
2022-09-10T09:35:23.984Z,27.36
2022-09-10T09:38:12.474Z,27.56
2022-09-10T09:40:48.615Z,27.42
2022-09-10T09:43:29.982Z,27.43
2022-09-10T09:46:00.753Z,27.69
2022-09-10T09:48:39.422Z,28.23
2022-09-10T09:51:11.752Z,28.62
2022-09-10T09:53:45.090Z,29.11
2022-09-10T09:56:24.059Z,29.52
2022-09-10T09:58:53.865Z,29.81
2022-09-10T10:01:25.087Z,30.06
2022-09-10T10:04:04.134Z,30.31
2022-09-10T10:06:35.152Z,29.99
2022-09-10T10:09:06.919Z,29.89
2022-09-10T10:11:57.379Z,29.90
2022-09-10T10:14:39.392Z,29.76
2022-09-10T10:17:38.892Z,30.03
2022-09-10T10:20:12.770Z,29.89
2022-09-10T10:22:43.127Z,29.15
2022-09-10T10:25:36.448Z,28.02
2022-09-10T10:28:21.227Z,26.85
2022-09-10T10:30:54.538Z,26.37
2022-09-10T10:33:29.528Z,26.00
2022-09-10T10:36:07.261Z,25.84
2022-09-10T10:38:40.598Z,25.53
2022-09-10T10:41:41.218Z,25.46
2022-09-10T10:44:33.795Z,25.23
2022-09-10T10:47:20.785Z,24.90
2022-09-10T10:50:00.450Z,24.80
2022-09-10T10:52:38.624Z,24.82
2022-09-10T10:55:23.356Z,25.21
2022-09-10T10:58:16.902Z,25.91
2022-09-10T11:00:52.324Z,26.50
2022-09-10T11:03:26.835Z,26.93
2022-09-10T11:06:01.762Z,27.33
2022-09-10T11:08:36.259Z,27.60
2022-09-10T11:11:14.586Z,28.24
2022-09-10T11:13:50.705Z,28.91
2022-09-10T11:16:25.626Z,29.27
2022-09-10T11:18:58.494Z,29.56
2022-09-10T11:21:33.367Z,29.22
2022-09-10T11:24:06.412Z,29.33
2022-09-10T11:26:39.352Z,29.32
2022-09-10T11:29:32.943Z,29.22
2022-09-10T11:32:09.337Z,29.52
2022-09-10T11:34:48.966Z,29.71
2022-09-10T11:37:24.997Z,29.67
2022-09-10T11:40:01.301Z,29.53
2022-09-10T11:42:38.109Z,29.81
2022-09-10T11:45:19.733Z,29.83
2022-09-10T11:47:58.607Z,29.83
2022-09-10T11:50:34.667Z,29.98
2022-09-10T11:53:07.694Z,30.00
2022-09-10T11:55:57.999Z,29.78
2022-09-10T11:58:36.793Z,29.49
2022-09-10T12:01:14.735Z,29.55
2022-09-10T12:04:05.818Z,29.45
2022-09-10T12:06:44.571Z,29.49
2022-09-10T12:09:22.795Z,29.66
2022-09-10T12:11:59.977Z,29.59
2022-09-10T12:14:28.999Z,29.76
2022-09-10T12:17:01.100Z,29.84
2022-09-10T12:19:36.337Z,29.67
2022-09-10T12:22:09.636Z,29.55
2022-09-10T12:24:40.419Z,29.56
2022-09-10T12:27:18.988Z,29.82
2022-09-10T12:29:49.384Z,30.19
2022-09-10T12:32:33.052Z,30.86
2022-09-10T12:35:47.478Z,31.77
2022-09-10T12:38:55.768Z,32.00
2022-09-10T12:41:56.622Z,32.40
2022-09-10T12:44:35.028Z,31.94
2022-09-10T12:47:45.138Z,32.15
2022-09-10T12:50:33.063Z,32.37
2022-09-10T12:53:35.640Z,31.87
2022-09-10T12:56:25.203Z,31.93
2022-09-10T12:59:09.018Z,31.92
2022-09-10T13:01:43.207Z,31.21
2022-09-10T13:04:25.047Z,31.15
2022-09-10T13:06:57.617Z,30.63
2022-09-10T13:09:32.878Z,30.48
2022-09-10T13:12:08.364Z,29.80
2022-09-10T13:14:40.324Z,29.38
2022-09-10T13:17:40.969Z,28.97
2022-09-10T13:20:32.007Z,28.62
2022-09-10T13:23:06.087Z,28.53
2022-09-10T13:25:40.217Z,28.54
2022-09-10T13:28:46.559Z,28.47
2022-09-10T13:31:24.613Z,28.58
2022-09-10T13:34:22.285Z,28.66
2022-09-10T13:37:04.248Z,28.68
2022-09-10T13:39:57.477Z,28.77
2022-09-10T13:42:45.720Z,28.72
2022-09-10T13:45:23.708Z,28.63
2022-09-10T13:48:02.443Z,28.46
2022-09-10T13:50:39.421Z,28.21
2022-09-10T13:53:10.892Z,28.07
2022-09-10T13:55:42.009Z,28.02
2022-09-10T13:58:16.709Z,27.86
2022-09-10T14:00:54.295Z,27.80
2022-09-10T14:03:26.276Z,27.55
2022-09-10T14:05:59.303Z,27.43
2022-09-10T14:08:31.885Z,27.26
2022-09-10T14:11:04.483Z,26.83
2022-09-10T14:13:38.710Z,26.79
2022-09-10T14:16:12.536Z,26.68
2022-09-10T14:18:46.433Z,26.57
2022-09-10T14:21:16.892Z,26.35
2022-09-10T14:23:47.269Z,26.34
2022-09-10T14:26:24.457Z,26.50
2022-09-10T14:28:56.548Z,26.37
2022-09-10T14:31:32.392Z,26.34
2022-09-10T14:34:27.154Z,26.32
2022-09-10T14:36:56.159Z,26.25
2022-09-10T14:39:26.213Z,25.97
2022-09-10T14:42:11.301Z,25.86
2022-09-10T14:44:44.362Z,25.75
2022-09-10T14:47:29.254Z,25.62
2022-09-10T14:50:34.820Z,25.57
2022-09-10T14:53:05.150Z,25.60
2022-09-10T14:55:34.343Z,25.50
2022-09-10T14:58:03.327Z,25.59
2022-09-10T15:00:32.325Z,25.48
2022-09-10T15:03:01.395Z,25.50
2022-09-10T15:05:31.002Z,25.48
2022-09-10T15:07:59.962Z,25.29
2022-09-10T15:10:30.538Z,25.17
2022-09-10T15:13:00.281Z,25.13
2022-09-10T15:15:31.086Z,25.16
2022-09-10T15:18:00.213Z,25.13
2022-09-10T15:20:29.360Z,25.04
2022-09-10T15:22:58.379Z,25.06
2022-09-10T15:25:38.029Z,25.05
2022-09-10T15:28:08.215Z,24.89
2022-09-10T15:30:37.756Z,24.80
2022-09-10T15:33:07.783Z,24.64
2022-09-10T15:35:36.751Z,24.65
2022-09-10T15:38:05.681Z,24.71
2022-09-10T15:40:36.019Z,24.53
2022-09-10T15:43:06.253Z,24.60
2022-09-10T15:45:36.044Z,24.63
2022-09-10T15:48:05.484Z,24.61
2022-09-10T15:50:34.963Z,24.50
2022-09-10T15:53:11.765Z,24.46
2022-09-10T15:55:42.574Z,24.40
2022-09-10T15:58:12.728Z,24.27
2022-09-10T16:00:41.534Z,24.16
2022-09-10T16:03:11.377Z,24.09
2022-09-10T16:05:40.336Z,23.97
2022-09-10T16:08:09.288Z,23.89
2022-09-10T16:10:42.375Z,23.83
2022-09-10T16:13:11.293Z,23.76
2022-09-10T16:15:40.167Z,23.64
2022-09-10T16:18:08.775Z,23.50
2022-09-10T16:20:37.707Z,23.43
2022-09-10T16:23:06.613Z,23.39
2022-09-10T16:25:35.538Z,23.20
2022-09-10T16:28:06.032Z,23.21
2022-09-10T16:30:35.295Z,23.10
2022-09-10T16:33:04.002Z,23.09
2022-09-10T16:35:35.571Z,23.08
2022-09-10T16:38:04.937Z,22.97
2022-09-10T16:40:33.723Z,22.97
2022-09-10T16:43:03.562Z,22.90
2022-09-10T16:45:33.719Z,22.84
2022-09-10T16:48:04.430Z,22.85
2022-09-10T16:50:33.969Z,22.81
2022-09-10T16:53:02.926Z,22.74
2022-09-10T16:55:31.653Z,22.67
2022-09-10T16:58:00.369Z,22.55
2022-09-10T17:00:29.163Z,22.54
2022-09-10T17:02:59.904Z,22.51
2022-09-10T17:05:29.130Z,22.51
2022-09-10T17:07:57.860Z,22.53
2022-09-10T17:10:27.182Z,22.45
2022-09-10T17:12:56.306Z,22.41
2022-09-10T17:15:25.095Z,22.41
2022-09-10T17:17:53.908Z,22.37
2022-09-10T17:20:24.414Z,22.30
2022-09-10T17:22:53.353Z,22.31
2022-09-10T17:25:22.166Z,22.34
2022-09-10T17:27:50.913Z,22.35
2022-09-10T17:30:19.941Z,22.31
2022-09-10T17:32:49.332Z,22.29
2022-09-10T17:35:18.605Z,22.24
2022-09-10T17:37:49.556Z,22.14
2022-09-10T17:40:20.303Z,22.07
2022-09-10T17:42:50.472Z,22.02
2022-09-10T17:45:19.936Z,22.01
2022-09-10T17:47:48.619Z,22.04
2022-09-10T17:50:17.401Z,22.00
2022-09-10T17:52:46.611Z,21.92
2022-09-10T17:55:17.020Z,21.88
2022-09-10T17:57:46.062Z,21.78
2022-09-10T18:00:15.962Z,21.76
2022-09-10T18:02:44.773Z,21.64
2022-09-10T18:05:13.647Z,21.61
2022-09-10T18:07:45.323Z,21.66
2022-09-10T18:10:14.063Z,21.60
2022-09-10T18:12:44.142Z,21.55
2022-09-10T18:15:13.062Z,21.51
2022-09-10T18:17:42.008Z,21.57
2022-09-10T18:20:11.606Z,21.61
2022-09-10T18:22:40.564Z,21.56
2022-09-10T18:25:10.257Z,21.62
2022-09-10T18:27:41.704Z,21.60
2022-09-10T18:30:13.906Z,21.59
2022-09-10T18:32:42.931Z,21.50
2022-09-10T18:35:12.240Z,21.45
2022-09-10T18:37:41.170Z,21.51
2022-09-10T18:40:12.260Z,21.42
2022-09-10T18:42:44.800Z,21.40
2022-09-10T18:45:17.607Z,21.27
2022-09-10T18:47:46.389Z,21.29
2022-09-10T18:50:15.123Z,21.26
2022-09-10T18:52:44.022Z,21.15
2022-09-10T18:55:12.965Z,21.16
2022-09-10T18:57:41.641Z,21.11
2022-09-10T19:00:12.487Z,21.04
2022-09-10T19:02:42.812Z,20.94
2022-09-10T19:05:12.534Z,20.87
2022-09-10T19:07:41.698Z,20.90
2022-09-10T19:10:10.855Z,20.73
2022-09-10T19:12:40.441Z,20.63
2022-09-10T19:15:10.613Z,20.56
2022-09-10T19:17:39.876Z,20.48
2022-09-10T19:20:11.199Z,20.42
2022-09-10T19:22:40.154Z,20.39
2022-09-10T19:25:09.723Z,20.41
2022-09-10T19:27:38.803Z,20.45
2022-09-10T19:30:08.905Z,20.46
2022-09-10T19:32:37.715Z,20.35
2022-09-10T19:35:06.952Z,20.33
2022-09-10T19:37:37.206Z,20.36
2022-09-10T19:40:07.195Z,20.36
2022-09-10T19:42:36.018Z,20.35
2022-09-10T19:45:08.185Z,20.27
2022-09-10T19:47:38.945Z,20.25
2022-09-10T19:50:08.574Z,20.17
2022-09-10T19:52:38.899Z,19.92
2022-09-10T19:55:08.080Z,20.01
2022-09-10T19:57:36.839Z,20.06
2022-09-10T20:00:07.126Z,20.02
2022-09-10T20:02:40.590Z,19.98
2022-09-10T20:05:10.850Z,19.96
2022-09-10T20:07:41.797Z,19.99
2022-09-10T20:10:10.909Z,19.99
2022-09-10T20:12:39.730Z,19.76
2022-09-10T20:15:10.016Z,19.67
2022-09-10T20:17:38.901Z,19.71
2022-09-10T20:20:08.370Z,19.72
2022-09-10T20:22:38.796Z,19.79
2022-09-10T20:25:09.789Z,19.65
2022-09-10T20:27:39.275Z,19.68
2022-09-10T20:30:09.823Z,19.46
2022-09-10T20:32:38.541Z,19.52
2022-09-10T20:35:08.532Z,19.61
2022-09-10T20:37:37.885Z,19.58
2022-09-10T20:40:09.046Z,19.54
2022-09-10T20:42:39.438Z,19.66
2022-09-10T20:45:09.143Z,19.69
2022-09-10T20:47:43.211Z,19.49
2022-09-10T20:50:13.293Z,19.38
2022-09-10T20:52:42.924Z,19.41
2022-09-10T20:55:13.215Z,19.39
2022-09-10T20:57:42.086Z,19.31
2022-09-10T21:00:12.340Z,19.42
2022-09-10T21:02:41.208Z,19.22
2022-09-10T21:05:10.820Z,19.10
2022-09-10T21:07:39.559Z,19.28
2022-09-10T21:10:09.274Z,19.48
2022-09-10T21:12:40.768Z,19.36
2022-09-10T21:15:12.076Z,19.48
2022-09-10T21:17:40.782Z,19.49
2022-09-10T21:20:10.290Z,19.48
2022-09-10T21:22:39.070Z,19.60
2022-09-10T21:25:08.926Z,19.66
2022-09-10T21:27:37.666Z,19.75
2022-09-10T21:30:08.962Z,19.76
2022-09-10T21:32:37.683Z,19.70
2022-09-10T21:35:07.554Z,19.76
2022-09-10T21:37:36.289Z,19.80
2022-09-10T21:40:05.536Z,19.76
2022-09-10T21:42:34.811Z,19.77
2022-09-10T21:45:03.823Z,19.80
2022-09-10T21:47:34.170Z,19.83
2022-09-10T21:50:04.127Z,19.82
2022-09-10T21:52:32.880Z,19.77
2022-09-10T21:55:02.415Z,19.77
2022-09-10T21:57:31.544Z,19.86
2022-09-10T22:00:00.401Z,19.84
2022-09-10T22:02:31.810Z,19.81
2022-09-10T22:05:05.220Z,19.79
2022-09-10T22:07:34.017Z,19.79
2022-09-10T22:10:02.825Z,19.75
2022-09-10T22:12:32.185Z,19.77
2022-09-10T22:15:01.029Z,19.74
2022-09-10T22:17:29.935Z,19.71
2022-09-10T22:19:58.855Z,19.68
2022-09-10T22:22:30.061Z,19.61
2022-09-10T22:24:58.858Z,19.61
2022-09-10T22:27:27.684Z,19.59
2022-09-10T22:29:57.055Z,19.53
2022-09-10T22:32:27.333Z,19.49
2022-09-10T22:34:56.102Z,19.48
2022-09-10T22:37:25.400Z,19.52
2022-09-10T22:39:55.825Z,19.54
2022-09-10T22:42:26.441Z,19.53
2022-09-10T22:44:55.277Z,19.50
2022-09-10T22:47:24.121Z,19.47
2022-09-10T22:49:52.919Z,19.48
2022-09-10T22:52:21.696Z,19.43
2022-09-10T22:54:50.624Z,19.40
2022-09-10T22:57:20.760Z,19.34
2022-09-10T22:59:49.621Z,19.36
2022-09-10T23:02:18.305Z,19.34
2022-09-10T23:04:47.061Z,19.32
2022-09-10T23:07:16.726Z,19.28
2022-09-10T23:09:45.580Z,19.26
2022-09-10T23:12:14.616Z,19.26
2022-09-10T23:14:44.976Z,19.21
2022-09-10T23:17:15.543Z,19.11
2022-09-10T23:19:46.286Z,18.99
2022-09-10T23:22:15.097Z,18.86
2022-09-10T23:24:44.025Z,18.81
2022-09-10T23:27:13.814Z,18.73
2022-09-10T23:29:42.616Z,18.68
2022-09-10T23:32:12.731Z,18.58
2022-09-10T23:34:41.802Z,18.57
2022-09-10T23:37:11.256Z,18.50
2022-09-10T23:39:39.966Z,18.41
2022-09-10T23:42:09.004Z,18.44
2022-09-10T23:44:37.780Z,18.42
2022-09-10T23:47:07.166Z,18.41
2022-09-10T23:49:37.390Z,18.41
2022-09-10T23:52:06.187Z,18.38
2022-09-10T23:54:35.388Z,18.33
2022-09-10T23:57:04.199Z,18.26
2022-09-10T23:59:32.883Z,18.21
